sensor_id;sensor_type;location;lat;lon;timestamp;P1;durP1;ratioP1;P2;durP2;ratioP2
52974;SDS011;38839;45.186;5.720;2022-11-20T00:02:16;1.88;;;1.33;;
52974;SDS011;38839;45.186;5.720;2022-11-20T00:04:41;2.08;;;1.38;;
52974;SDS011;38839;45.186;5.720;2022-11-20T00:07:06;2.20;;;1.10;;
52974;SDS011;38839;45.186;5.720;2022-11-20T00:09:32;5.05;;;1.40;;
52974;SDS011;38839;45.186;5.720;2022-11-20T00:11:57;1.50;;;1.10;;
52974;SDS011;38839;45.186;5.720;2022-11-20T00:14:22;1.25;;;1.00;;
52974;SDS011;38839;45.186;5.720;2022-11-20T00:16:48;4.68;;;1.30;;
52974;SDS011;38839;45.186;5.720;2022-11-20T00:19:13;3.25;;;1.60;;
52974;SDS011;38839;45.186;5.720;2022-11-20T00:21:39;3.47;;;1.23;;
52974;SDS011;38839;45.186;5.720;2022-11-20T00:24:04;1.73;;;1.13;;
52974;SDS011;38839;45.186;5.720;2022-11-20T00:26:30;3.65;;;1.60;;
52974;SDS011;38839;45.186;5.720;2022-11-20T00:28:57;2.10;;;1.50;;
52974;SDS011;38839;45.186;5.720;2022-11-20T00:31:24;1.83;;;1.35;;
52974;SDS011;38839;45.186;5.720;2022-11-20T00:33:50;2.60;;;1.70;;
52974;SDS011;38839;45.186;5.720;2022-11-20T00:36:17;3.17;;;1.27;;
52974;SDS011;38839;45.186;5.720;2022-11-20T00:38:44;3.45;;;1.50;;
52974;SDS011;38839;45.186;5.720;2022-11-20T00:41:11;1.40;;;1.30;;
52974;SDS011;38839;45.186;5.720;2022-11-20T00:43:40;6.40;;;1.70;;
52974;SDS011;38839;45.186;5.720;2022-11-20T00:46:07;3.08;;;1.40;;
52974;SDS011;38839;45.186;5.720;2022-11-20T00:48:34;1.80;;;1.30;;
52974;SDS011;38839;45.186;5.720;2022-11-20T00:51:00;2.05;;;1.45;;
52974;SDS011;38839;45.186;5.720;2022-11-20T00:53:25;2.35;;;1.52;;
52974;SDS011;38839;45.186;5.720;2022-11-20T00:55:58;4.35;;;1.60;;
52974;SDS011;38839;45.186;5.720;2022-11-20T00:58:27;2.78;;;1.38;;
52974;SDS011;38839;45.186;5.720;2022-11-20T01:00:59;3.72;;;1.50;;
52974;SDS011;38839;45.186;5.720;2022-11-20T01:03:30;1.98;;;1.42;;
52974;SDS011;38839;45.186;5.720;2022-11-20T01:05:59;1.83;;;1.60;;
52974;SDS011;38839;45.186;5.720;2022-11-20T01:08:28;4.25;;;1.50;;
52974;SDS011;38839;45.186;5.720;2022-11-20T01:10:58;1.60;;;1.20;;
52974;SDS011;38839;45.186;5.720;2022-11-20T01:13:24;3.50;;;2.00;;
52974;SDS011;38839;45.186;5.720;2022-11-20T01:16:15;2.30;;;1.65;;
52974;SDS011;38839;45.186;5.720;2022-11-20T01:19:02;3.97;;;1.40;;
52974;SDS011;38839;45.186;5.720;2022-11-20T01:21:30;3.25;;;1.50;;
52974;SDS011;38839;45.186;5.720;2022-11-20T01:23:57;2.45;;;1.40;;
52974;SDS011;38839;45.186;5.720;2022-11-20T01:26:24;3.75;;;1.40;;
52974;SDS011;38839;45.186;5.720;2022-11-20T01:28:52;1.45;;;1.10;;
52974;SDS011;38839;45.186;5.720;2022-11-20T01:31:25;3.33;;;1.38;;
52974;SDS011;38839;45.186;5.720;2022-11-20T01:33:54;1.85;;;1.05;;
52974;SDS011;38839;45.186;5.720;2022-11-20T01:36:22;3.30;;;1.30;;
52974;SDS011;38839;45.186;5.720;2022-11-20T01:38:53;3.70;;;1.30;;
52974;SDS011;38839;45.186;5.720;2022-11-20T01:41:20;1.73;;;1.08;;
52974;SDS011;38839;45.186;5.720;2022-11-20T01:44:05;1.75;;;1.20;;
52974;SDS011;38839;45.186;5.720;2022-11-20T01:46:31;1.88;;;1.00;;
52974;SDS011;38839;45.186;5.720;2022-11-20T01:51:53;2.33;;;1.02;;
52974;SDS011;38839;45.186;5.720;2022-11-20T01:54:27;4.32;;;1.20;;
52974;SDS011;38839;45.186;5.720;2022-11-20T01:57:04;2.55;;;1.20;;
52974;SDS011;38839;45.186;5.720;2022-11-20T01:59:34;2.90;;;1.10;;
52974;SDS011;38839;45.186;5.720;2022-11-20T02:02:02;2.13;;;1.08;;
52974;SDS011;38839;45.186;5.720;2022-11-20T02:04:28;3.78;;;1.30;;
52974;SDS011;38839;45.186;5.720;2022-11-20T02:06:55;1.30;;;1.20;;
52974;SDS011;38839;45.186;5.720;2022-11-20T02:09:24;2.88;;;1.08;;
52974;SDS011;38839;45.186;5.720;2022-11-20T02:11:50;1.13;;;0.93;;
52974;SDS011;38839;45.186;5.720;2022-11-20T02:14:16;2.22;;;0.95;;
52974;SDS011;38839;45.186;5.720;2022-11-20T02:16:46;4.43;;;1.17;;
52974;SDS011;38839;45.186;5.720;2022-11-20T02:19:16;2.58;;;1.13;;
52974;SDS011;38839;45.186;5.720;2022-11-20T02:22:00;2.38;;;1.20;;
52974;SDS011;38839;45.186;5.720;2022-11-20T02:24:32;2.17;;;1.40;;
52974;SDS011;38839;45.186;5.720;2022-11-20T02:26:59;3.25;;;1.30;;
52974;SDS011;38839;45.186;5.720;2022-11-20T02:29:33;2.13;;;1.42;;
52974;SDS011;38839;45.186;5.720;2022-11-20T02:32:02;2.22;;;1.50;;
52974;SDS011;38839;45.186;5.720;2022-11-20T02:34:28;1.98;;;1.73;;
52974;SDS011;38839;45.186;5.720;2022-11-20T02:36:54;2.65;;;1.63;;
52974;SDS011;38839;45.186;5.720;2022-11-20T02:39:20;2.78;;;1.88;;
52974;SDS011;38839;45.186;5.720;2022-11-20T02:41:48;1.98;;;1.70;;
52974;SDS011;38839;45.186;5.720;2022-11-20T02:44:13;2.65;;;1.98;;
52974;SDS011;38839;45.186;5.720;2022-11-20T02:46:38;2.95;;;1.60;;
52974;SDS011;38839;45.186;5.720;2022-11-20T02:49:04;2.95;;;1.90;;
52974;SDS011;38839;45.186;5.720;2022-11-20T02:51:30;2.78;;;1.77;;
52974;SDS011;38839;45.186;5.720;2022-11-20T02:53:56;3.83;;;2.00;;
52974;SDS011;38839;45.186;5.720;2022-11-20T02:56:21;2.08;;;1.88;;
52974;SDS011;38839;45.186;5.720;2022-11-20T02:58:47;3.53;;;2.45;;
52974;SDS011;38839;45.186;5.720;2022-11-20T03:01:12;4.43;;;2.33;;
52974;SDS011;38839;45.186;5.720;2022-11-20T03:03:38;2.75;;;1.60;;
52974;SDS011;38839;45.186;5.720;2022-11-20T03:06:03;2.95;;;2.00;;
52974;SDS011;38839;45.186;5.720;2022-11-20T03:08:29;3.05;;;1.98;;
52974;SDS011;38839;45.186;5.720;2022-11-20T03:10:54;2.80;;;1.50;;
52974;SDS011;38839;45.186;5.720;2022-11-20T03:13:20;4.20;;;1.65;;
52974;SDS011;38839;45.186;5.720;2022-11-20T03:15:45;3.00;;;1.77;;
52974;SDS011;38839;45.186;5.720;2022-11-20T03:18:10;2.83;;;1.77;;
52974;SDS011;38839;45.186;5.720;2022-11-20T03:20:36;2.88;;;1.90;;
52974;SDS011;38839;45.186;5.720;2022-11-20T03:23:01;3.38;;;2.05;;
52974;SDS011;38839;45.186;5.720;2022-11-20T03:25:26;3.53;;;1.80;;
52974;SDS011;38839;45.186;5.720;2022-11-20T03:27:52;3.55;;;1.60;;
52974;SDS011;38839;45.186;5.720;2022-11-20T03:30:18;4.65;;;1.88;;
52974;SDS011;38839;45.186;5.720;2022-11-20T03:32:43;2.42;;;1.83;;
52974;SDS011;38839;45.186;5.720;2022-11-20T03:35:09;2.35;;;2.00;;
52974;SDS011;38839;45.186;5.720;2022-11-20T03:37:34;3.55;;;1.90;;
52974;SDS011;38839;45.186;5.720;2022-11-20T03:40:00;4.18;;;2.30;;
52974;SDS011;38839;45.186;5.720;2022-11-20T03:42:25;2.63;;;1.85;;
52974;SDS011;38839;45.186;5.720;2022-11-20T03:45:09;4.63;;;1.92;;
52974;SDS011;38839;45.186;5.720;2022-11-20T03:47:35;4.30;;;1.88;;
52974;SDS011;38839;45.186;5.720;2022-11-20T03:50:00;1.70;;;1.50;;
52974;SDS011;38839;45.186;5.720;2022-11-20T03:52:26;2.10;;;1.77;;
52974;SDS011;38839;45.186;5.720;2022-11-20T03:54:51;2.05;;;1.30;;
52974;SDS011;38839;45.186;5.720;2022-11-20T03:57:16;3.45;;;1.63;;
52974;SDS011;38839;45.186;5.720;2022-11-20T03:59:42;3.88;;;1.77;;
52974;SDS011;38839;45.186;5.720;2022-11-20T04:02:07;3.30;;;1.70;;
52974;SDS011;38839;45.186;5.720;2022-11-20T04:04:32;3.95;;;1.80;;
52974;SDS011;38839;45.186;5.720;2022-11-20T04:06:58;2.97;;;1.60;;
52974;SDS011;38839;45.186;5.720;2022-11-20T04:09:23;2.97;;;1.40;;
52974;SDS011;38839;45.186;5.720;2022-11-20T04:11:49;4.22;;;1.90;;
52974;SDS011;38839;45.186;5.720;2022-11-20T04:14:14;4.93;;;2.10;;
52974;SDS011;38839;45.186;5.720;2022-11-20T04:16:41;3.70;;;1.48;;
52974;SDS011;38839;45.186;5.720;2022-11-20T04:19:09;3.60;;;1.52;;
52974;SDS011;38839;45.186;5.720;2022-11-20T04:21:36;2.70;;;1.90;;
52974;SDS011;38839;45.186;5.720;2022-11-20T04:24:02;3.00;;;1.25;;
52974;SDS011;38839;45.186;5.720;2022-11-20T04:26:28;3.45;;;1.60;;
52974;SDS011;38839;45.186;5.720;2022-11-20T04:28:54;1.60;;;1.27;;
52974;SDS011;38839;45.186;5.720;2022-11-20T04:31:22;3.67;;;1.80;;
52974;SDS011;38839;45.186;5.720;2022-11-20T04:33:51;2.72;;;1.63;;
52974;SDS011;38839;45.186;5.720;2022-11-20T04:36:22;5.20;;;1.50;;
52974;SDS011;38839;45.186;5.720;2022-11-20T04:38:53;2.88;;;1.50;;
52974;SDS011;38839;45.186;5.720;2022-11-20T04:41:24;4.40;;;1.42;;
52974;SDS011;38839;45.186;5.720;2022-11-20T04:43:55;3.78;;;1.42;;
52974;SDS011;38839;45.186;5.720;2022-11-20T04:46:28;4.07;;;1.70;;
52974;SDS011;38839;45.186;5.720;2022-11-20T04:48:54;3.88;;;1.58;;
52974;SDS011;38839;45.186;5.720;2022-11-20T04:51:20;2.70;;;1.17;;
52974;SDS011;38839;45.186;5.720;2022-11-20T04:53:46;4.20;;;1.70;;
52974;SDS011;38839;45.186;5.720;2022-11-20T04:56:12;5.00;;;1.67;;
52974;SDS011;38839;45.186;5.720;2022-11-20T04:58:38;3.88;;;1.50;;
52974;SDS011;38839;45.186;5.720;2022-11-20T05:01:05;2.97;;;1.30;;
52974;SDS011;38839;45.186;5.720;2022-11-20T05:03:32;3.45;;;1.63;;
52974;SDS011;38839;45.186;5.720;2022-11-20T05:06:01;2.28;;;1.50;;
52974;SDS011;38839;45.186;5.720;2022-11-20T05:08:28;3.35;;;1.60;;
52974;SDS011;38839;45.186;5.720;2022-11-20T05:10:58;1.75;;;1.23;;
52974;SDS011;38839;45.186;5.720;2022-11-20T05:13:24;2.10;;;1.40;;
52974;SDS011;38839;45.186;5.720;2022-11-20T05:15:50;3.85;;;1.67;;
52974;SDS011;38839;45.186;5.720;2022-11-20T05:18:15;5.30;;;1.50;;
52974;SDS011;38839;45.186;5.720;2022-11-20T05:20:40;1.98;;;1.40;;
52974;SDS011;38839;45.186;5.720;2022-11-20T05:23:06;3.10;;;1.52;;
52974;SDS011;38839;45.186;5.720;2022-11-20T05:25:31;2.47;;;1.40;;
52974;SDS011;38839;45.186;5.720;2022-11-20T05:27:56;2.22;;;1.55;;
52974;SDS011;38839;45.186;5.720;2022-11-20T05:30:22;3.53;;;1.45;;
52974;SDS011;38839;45.186;5.720;2022-11-20T05:32:47;3.15;;;1.40;;
52974;SDS011;38839;45.186;5.720;2022-11-20T05:35:12;2.45;;;1.60;;
52974;SDS011;38839;45.186;5.720;2022-11-20T05:37:38;2.42;;;1.50;;
52974;SDS011;38839;45.186;5.720;2022-11-20T05:40:03;1.67;;;1.20;;
52974;SDS011;38839;45.186;5.720;2022-11-20T05:42:30;2.80;;;1.50;;
52974;SDS011;38839;45.186;5.720;2022-11-20T05:44:59;3.85;;;1.38;;
52974;SDS011;38839;45.186;5.720;2022-11-20T05:47:27;2.35;;;1.45;;
52974;SDS011;38839;45.186;5.720;2022-11-20T05:49:53;2.67;;;1.58;;
52974;SDS011;38839;45.186;5.720;2022-11-20T05:52:19;5.47;;;2.08;;
52974;SDS011;38839;45.186;5.720;2022-11-20T05:54:45;2.38;;;1.48;;
52974;SDS011;38839;45.186;5.720;2022-11-20T05:57:10;3.05;;;1.67;;
52974;SDS011;38839;45.186;5.720;2022-11-20T05:59:36;3.78;;;1.33;;
52974;SDS011;38839;45.186;5.720;2022-11-20T06:02:01;4.70;;;1.63;;
52974;SDS011;38839;45.186;5.720;2022-11-20T06:04:27;2.72;;;1.67;;
52974;SDS011;38839;45.186;5.720;2022-11-20T06:06:52;2.15;;;1.50;;
52974;SDS011;38839;45.186;5.720;2022-11-20T06:09:17;2.95;;;1.70;;
52974;SDS011;38839;45.186;5.720;2022-11-20T06:11:43;2.50;;;1.50;;
52974;SDS011;38839;45.186;5.720;2022-11-20T06:14:08;1.95;;;1.40;;
52974;SDS011;38839;45.186;5.720;2022-11-20T06:16:33;1.73;;;1.33;;
52974;SDS011;38839;45.186;5.720;2022-11-20T06:18:59;3.63;;;1.63;;
52974;SDS011;38839;45.186;5.720;2022-11-20T06:21:24;4.82;;;1.70;;
52974;SDS011;38839;45.186;5.720;2022-11-20T06:23:50;2.25;;;1.40;;
52974;SDS011;38839;45.186;5.720;2022-11-20T06:26:24;2.30;;;1.40;;
52974;SDS011;38839;45.186;5.720;2022-11-20T06:28:51;3.92;;;1.85;;
52974;SDS011;38839;45.186;5.720;2022-11-20T06:31:22;2.13;;;1.38;;
52974;SDS011;38839;45.186;5.720;2022-11-20T06:33:50;1.90;;;1.35;;
52974;SDS011;38839;45.186;5.720;2022-11-20T06:36:19;4.38;;;1.70;;
52974;SDS011;38839;45.186;5.720;2022-11-20T06:38:48;4.13;;;1.73;;
52974;SDS011;38839;45.186;5.720;2022-11-20T06:41:20;3.45;;;1.80;;
52974;SDS011;38839;45.186;5.720;2022-11-20T06:43:48;1.55;;;1.45;;
52974;SDS011;38839;45.186;5.720;2022-11-20T06:46:19;2.50;;;1.77;;
52974;SDS011;38839;45.186;5.720;2022-11-20T06:48:48;2.53;;;1.45;;
52974;SDS011;38839;45.186;5.720;2022-11-20T06:51:18;2.05;;;1.40;;
52974;SDS011;38839;45.186;5.720;2022-11-20T06:53:48;3.10;;;1.63;;
52974;SDS011;38839;45.186;5.720;2022-11-20T06:56:22;4.43;;;1.60;;
52974;SDS011;38839;45.186;5.720;2022-11-20T06:58:53;5.63;;;1.92;;
52974;SDS011;38839;45.186;5.720;2022-11-20T07:01:26;2.80;;;1.60;;
52974;SDS011;38839;45.186;5.720;2022-11-20T07:03:57;4.85;;;1.60;;
52974;SDS011;38839;45.186;5.720;2022-11-20T07:06:29;4.97;;;2.00;;
52974;SDS011;38839;45.186;5.720;2022-11-20T07:11:29;2.60;;;1.85;;
52974;SDS011;38839;45.186;5.720;2022-11-20T07:13:59;4.80;;;1.45;;
52974;SDS011;38839;45.186;5.720;2022-11-20T07:16:31;2.30;;;1.77;;
52974;SDS011;38839;45.186;5.720;2022-11-20T07:19:04;2.95;;;1.75;;
52974;SDS011;38839;45.186;5.720;2022-11-20T07:21:37;4.38;;;1.95;;
52974;SDS011;38839;45.186;5.720;2022-11-20T07:24:19;2.13;;;1.40;;
52974;SDS011;38839;45.186;5.720;2022-11-20T07:26:48;2.55;;;1.70;;
52974;SDS011;38839;45.186;5.720;2022-11-20T07:29:16;2.85;;;1.70;;
52974;SDS011;38839;45.186;5.720;2022-11-20T07:31:42;2.55;;;1.75;;
52974;SDS011;38839;45.186;5.720;2022-11-20T07:34:08;3.53;;;1.65;;
52974;SDS011;38839;45.186;5.720;2022-11-20T07:36:33;1.80;;;1.50;;
52974;SDS011;38839;45.186;5.720;2022-11-20T07:38:59;1.67;;;1.58;;
52974;SDS011;38839;45.186;5.720;2022-11-20T07:41:24;3.63;;;1.48;;
52974;SDS011;38839;45.186;5.720;2022-11-20T07:43:50;3.30;;;1.88;;
52974;SDS011;38839;45.186;5.720;2022-11-20T07:46:15;3.08;;;1.60;;
52974;SDS011;38839;45.186;5.720;2022-11-20T07:48:40;3.47;;;1.90;;
52974;SDS011;38839;45.186;5.720;2022-11-20T07:51:06;3.60;;;2.00;;
52974;SDS011;38839;45.186;5.720;2022-11-20T07:53:31;2.80;;;1.73;;
52974;SDS011;38839;45.186;5.720;2022-11-20T07:56:00;2.35;;;2.10;;
52974;SDS011;38839;45.186;5.720;2022-11-20T07:58:26;2.55;;;1.73;;
52974;SDS011;38839;45.186;5.720;2022-11-20T08:00:54;3.15;;;1.92;;
52974;SDS011;38839;45.186;5.720;2022-11-20T08:03:19;2.70;;;1.98;;
52974;SDS011;38839;45.186;5.720;2022-11-20T08:05:45;4.30;;;2.30;;
52974;SDS011;38839;45.186;5.720;2022-11-20T08:08:10;3.55;;;2.17;;
52974;SDS011;38839;45.186;5.720;2022-11-20T08:10:36;3.45;;;1.80;;
52974;SDS011;38839;45.186;5.720;2022-11-20T08:13:01;3.55;;;1.98;;
52974;SDS011;38839;45.186;5.720;2022-11-20T08:15:49;2.08;;;1.83;;
52974;SDS011;38839;45.186;5.720;2022-11-20T08:18:16;5.28;;;1.88;;
52974;SDS011;38839;45.186;5.720;2022-11-20T09:28:58;2.72;;;1.90;;
52974;SDS011;38839;45.186;5.720;2022-11-20T09:31:24;2.78;;;2.08;;
52974;SDS011;38839;45.186;5.720;2022-11-20T09:33:51;2.28;;;1.95;;
52974;SDS011;38839;45.186;5.720;2022-11-20T09:36:17;3.55;;;2.00;;
52974;SDS011;38839;45.186;5.720;2022-11-20T09:38:44;5.40;;;1.95;;
52974;SDS011;38839;45.186;5.720;2022-11-20T09:47:11;1.77;;;1.40;;
52974;SDS011;38839;45.186;5.720;2022-11-20T09:52:49;2.10;;;1.30;;
52974;SDS011;38839;45.186;5.720;2022-11-20T09:55:29;2.20;;;1.45;;
52974;SDS011;38839;45.186;5.720;2022-11-20T09:57:58;11.35;;;1.92;;
52974;SDS011;38839;45.186;5.720;2022-11-20T10:00:24;3.53;;;1.60;;
52974;SDS011;38839;45.186;5.720;2022-11-20T10:06:04;1.45;;;1.25;;
52974;SDS011;38839;45.186;5.720;2022-11-20T10:08:39;1.85;;;1.30;;
52974;SDS011;38839;45.186;5.720;2022-11-20T10:25:05;3.15;;;1.05;;
52974;SDS011;38839;45.186;5.720;2022-11-20T10:30:25;2.15;;;1.30;;
52974;SDS011;38839;45.186;5.720;2022-11-20T10:32:54;1.40;;;1.00;;
52974;SDS011;38839;45.186;5.720;2022-11-20T10:35:32;0.98;;;0.90;;
52974;SDS011;38839;45.186;5.720;2022-11-20T10:38:14;4.45;;;0.90;;
52974;SDS011;38839;45.186;5.720;2022-11-20T10:40:49;1.75;;;1.13;;
52974;SDS011;38839;45.186;5.720;2022-11-20T10:43:39;1.30;;;1.17;;
52974;SDS011;38839;45.186;5.720;2022-11-20T10:46:05;1.20;;;1.10;;
52974;SDS011;38839;45.186;5.720;2022-11-20T10:48:39;1.75;;;0.98;;
52974;SDS011;38839;45.186;5.720;2022-11-20T10:56:34;1.63;;;1.08;;
52974;SDS011;38839;45.186;5.720;2022-11-20T11:01:53;1.17;;;1.00;;
52974;SDS011;38839;45.186;5.720;2022-11-20T11:10:05;2.58;;;1.27;;
52974;SDS011;38839;45.186;5.720;2022-11-20T11:12:37;0.65;;;0.65;;
52974;SDS011;38839;45.186;5.720;2022-11-20T11:15:14;2.40;;;1.27;;
52974;SDS011;38839;45.186;5.720;2022-11-20T11:17:50;2.40;;;1.30;;
52974;SDS011;38839;45.186;5.720;2022-11-20T11:20:17;2.35;;;1.20;;
52974;SDS011;38839;45.186;5.720;2022-11-20T11:22:57;1.85;;;1.13;;
52974;SDS011;38839;45.186;5.720;2022-11-20T11:27:58;1.58;;;1.10;;
52974;SDS011;38839;45.186;5.720;2022-11-20T11:30:25;2.70;;;1.00;;
52974;SDS011;38839;45.186;5.720;2022-11-20T11:33:12;1.55;;;1.20;;
52974;SDS011;38839;45.186;5.720;2022-11-20T11:35:45;1.30;;;0.70;;
52974;SDS011;38839;45.186;5.720;2022-11-20T11:38:15;1.47;;;1.10;;
52974;SDS011;38839;45.186;5.720;2022-11-20T11:40:44;1.17;;;1.00;;
52974;SDS011;38839;45.186;5.720;2022-11-20T11:43:31;1.88;;;1.08;;
52974;SDS011;38839;45.186;5.720;2022-11-20T11:48:55;1.30;;;0.90;;
52974;SDS011;38839;45.186;5.720;2022-11-20T11:51:22;0.90;;;0.82;;
52974;SDS011;38839;45.186;5.720;2022-11-20T11:53:51;1.48;;;0.98;;
52974;SDS011;38839;45.186;5.720;2022-11-20T11:56:17;1.63;;;0.98;;
52974;SDS011;38839;45.186;5.720;2022-11-20T12:03:44;1.90;;;0.85;;
52974;SDS011;38839;45.186;5.720;2022-11-20T12:06:20;1.35;;;0.90;;
52974;SDS011;38839;45.186;5.720;2022-11-20T12:08:53;7.75;;;2.55;;
52974;SDS011;38839;45.186;5.720;2022-11-20T12:14:13;2.10;;;1.08;;
52974;SDS011;38839;45.186;5.720;2022-11-20T12:16:41;2.55;;;1.55;;
52974;SDS011;38839;45.186;5.720;2022-11-20T12:19:10;3.10;;;1.30;;
52974;SDS011;38839;45.186;5.720;2022-11-20T12:26:54;1.85;;;1.20;;
52974;SDS011;38839;45.186;5.720;2022-11-20T12:29:43;3.63;;;1.50;;
52974;SDS011;38839;45.186;5.720;2022-11-20T12:39:49;1.23;;;1.00;;
52974;SDS011;38839;45.186;5.720;2022-11-20T12:42:23;1.98;;;0.95;;
52974;SDS011;38839;45.186;5.720;2022-11-20T12:45:29;2.65;;;1.30;;
52974;SDS011;38839;45.186;5.720;2022-11-20T12:48:31;0.98;;;0.80;;
52974;SDS011;38839;45.186;5.720;2022-11-20T13:01:56;1.42;;;0.65;;
52974;SDS011;38839;45.186;5.720;2022-11-20T13:07:17;1.42;;;0.88;;
52974;SDS011;38839;45.186;5.720;2022-11-20T13:09:45;2.65;;;1.10;;
52974;SDS011;38839;45.186;5.720;2022-11-20T13:12:16;1.30;;;0.70;;
52974;SDS011;38839;45.186;5.720;2022-11-20T13:17:56;4.65;;;1.10;;
52974;SDS011;38839;45.186;5.720;2022-11-20T13:20:27;1.17;;;0.80;;
52974;SDS011;38839;45.186;5.720;2022-11-20T13:22:54;1.05;;;0.80;;
52974;SDS011;38839;45.186;5.720;2022-11-20T13:25:26;2.70;;;0.98;;
52974;SDS011;38839;45.186;5.720;2022-11-20T13:27:57;1.30;;;1.00;;
52974;SDS011;38839;45.186;5.720;2022-11-20T13:30:25;1.88;;;1.00;;
52974;SDS011;38839;45.186;5.720;2022-11-20T13:35:32;1.17;;;0.73;;
52974;SDS011;38839;45.186;5.720;2022-11-20T13:38:12;2.78;;;0.90;;
52974;SDS011;38839;45.186;5.720;2022-11-20T13:40:56;1.33;;;0.80;;
52974;SDS011;38839;45.186;5.720;2022-11-20T13:45:59;1.33;;;0.80;;
52974;SDS011;38839;45.186;5.720;2022-11-20T13:48:31;1.95;;;1.00;;
52974;SDS011;38839;45.186;5.720;2022-11-20T13:51:02;1.73;;;0.85;;
52974;SDS011;38839;45.186;5.720;2022-11-20T13:55:59;0.90;;;0.80;;
52974;SDS011;38839;45.186;5.720;2022-11-20T14:01:15;2.03;;;0.88;;
52974;SDS011;38839;45.186;5.720;2022-11-20T14:03:44;0.90;;;0.82;;
52974;SDS011;38839;45.186;5.720;2022-11-20T14:06:15;1.23;;;0.57;;
52974;SDS011;38839;45.186;5.720;2022-11-20T14:08:52;2.17;;;0.80;;
52974;SDS011;38839;45.186;5.720;2022-11-20T14:11:19;2.53;;;0.63;;
52974;SDS011;38839;45.186;5.720;2022-11-20T14:13:56;2.03;;;1.00;;
52974;SDS011;38839;45.186;5.720;2022-11-20T14:16:26;1.42;;;0.77;;
52974;SDS011;38839;45.186;5.720;2022-11-20T14:18:53;1.08;;;0.93;;
52974;SDS011;38839;45.186;5.720;2022-11-20T14:21:27;0.75;;;0.57;;
52974;SDS011;38839;45.186;5.720;2022-11-20T14:24:04;1.48;;;1.00;;
52974;SDS011;38839;45.186;5.720;2022-11-20T14:26:30;2.05;;;1.17;;
52974;SDS011;38839;45.186;5.720;2022-11-20T14:28:57;2.15;;;1.40;;
52974;SDS011;38839;45.186;5.720;2022-11-20T14:31:23;2.25;;;1.77;;
52974;SDS011;38839;45.186;5.720;2022-11-20T14:33:54;2.03;;;1.15;;
52974;SDS011;38839;45.186;5.720;2022-11-20T14:36:21;1.30;;;0.88;;
52974;SDS011;38839;45.186;5.720;2022-11-20T14:38:49;0.95;;;0.82;;
52974;SDS011;38839;45.186;5.720;2022-11-20T14:41:17;1.50;;;1.27;;
52974;SDS011;38839;45.186;5.720;2022-11-20T14:43:47;1.65;;;1.10;;
52974;SDS011;38839;45.186;5.720;2022-11-20T14:46:18;2.05;;;0.93;;
52974;SDS011;38839;45.186;5.720;2022-11-20T14:48:51;2.55;;;1.00;;
52974;SDS011;38839;45.186;5.720;2022-11-20T14:51:35;1.80;;;0.88;;
52974;SDS011;38839;45.186;5.720;2022-11-20T14:54:10;2.17;;;1.20;;
52974;SDS011;38839;45.186;5.720;2022-11-20T14:56:36;1.75;;;0.90;;
52974;SDS011;38839;45.186;5.720;2022-11-20T14:59:02;1.13;;;0.95;;
52974;SDS011;38839;45.186;5.720;2022-11-20T15:01:28;0.93;;;0.90;;
52974;SDS011;38839;45.186;5.720;2022-11-20T15:04:10;1.48;;;1.00;;
52974;SDS011;38839;45.186;5.720;2022-11-20T15:06:36;2.22;;;1.23;;
52974;SDS011;38839;45.186;5.720;2022-11-20T15:09:12;1.80;;;1.00;;
52974;SDS011;38839;45.186;5.720;2022-11-20T15:11:39;1.20;;;1.05;;
52974;SDS011;38839;45.186;5.720;2022-11-20T15:14:28;2.92;;;1.30;;
52974;SDS011;38839;45.186;5.720;2022-11-20T15:16:55;3.22;;;1.38;;
52974;SDS011;38839;45.186;5.720;2022-11-20T15:19:22;1.73;;;1.05;;
52974;SDS011;38839;45.186;5.720;2022-11-20T15:21:49;2.55;;;1.42;;
52974;SDS011;38839;45.186;5.720;2022-11-20T15:24:15;2.83;;;1.77;;
52974;SDS011;38839;45.186;5.720;2022-11-20T15:26:40;2.55;;;1.70;;
52974;SDS011;38839;45.186;5.720;2022-11-20T15:29:14;3.17;;;1.77;;
52974;SDS011;38839;45.186;5.720;2022-11-20T15:31:43;2.53;;;1.80;;
52974;SDS011;38839;45.186;5.720;2022-11-20T15:34:16;2.17;;;1.73;;
52974;SDS011;38839;45.186;5.720;2022-11-20T15:36:42;1.92;;;1.50;;
52974;SDS011;38839;45.186;5.720;2022-11-20T15:39:08;1.88;;;1.48;;
52974;SDS011;38839;45.186;5.720;2022-11-20T15:41:34;3.03;;;1.98;;
52974;SDS011;38839;45.186;5.720;2022-11-20T15:44:01;2.58;;;1.50;;
52974;SDS011;38839;45.186;5.720;2022-11-20T15:46:28;3.30;;;1.40;;
52974;SDS011;38839;45.186;5.720;2022-11-20T15:48:58;1.48;;;1.25;;
52974;SDS011;38839;45.186;5.720;2022-11-20T15:51:34;7.97;;;1.80;;
52974;SDS011;38839;45.186;5.720;2022-11-20T15:54:02;3.17;;;1.55;;
52974;SDS011;38839;45.186;5.720;2022-11-20T15:56:35;4.40;;;1.92;;
52974;SDS011;38839;45.186;5.720;2022-11-20T15:59:00;2.10;;;1.70;;
52974;SDS011;38839;45.186;5.720;2022-11-20T16:01:26;3.22;;;1.63;;
52974;SDS011;38839;45.186;5.720;2022-11-20T16:03:51;3.40;;;2.20;;
52974;SDS011;38839;45.186;5.720;2022-11-20T16:06:16;4.22;;;2.20;;
52974;SDS011;38839;45.186;5.720;2022-11-20T16:08:42;3.20;;;2.00;;
52974;SDS011;38839;45.186;5.720;2022-11-20T16:11:10;4.07;;;1.90;;
52974;SDS011;38839;45.186;5.720;2022-11-20T16:16:27;2.45;;;1.60;;
52974;SDS011;38839;45.186;5.720;2022-11-20T16:18:55;2.83;;;1.77;;
52974;SDS011;38839;45.186;5.720;2022-11-20T16:21:20;3.15;;;2.10;;
52974;SDS011;38839;45.186;5.720;2022-11-20T16:23:51;4.68;;;2.47;;
52974;SDS011;38839;45.186;5.720;2022-11-20T16:28:47;3.38;;;2.20;;
52974;SDS011;38839;45.186;5.720;2022-11-20T16:31:13;3.15;;;2.13;;
52974;SDS011;38839;45.186;5.720;2022-11-20T16:33:40;2.42;;;1.90;;
52974;SDS011;38839;45.186;5.720;2022-11-20T16:36:10;2.47;;;1.95;;
52974;SDS011;38839;45.186;5.720;2022-11-20T16:38:37;3.63;;;2.10;;
52974;SDS011;38839;45.186;5.720;2022-11-20T16:41:03;3.42;;;2.15;;
52974;SDS011;38839;45.186;5.720;2022-11-20T16:43:29;4.28;;;2.15;;
52974;SDS011;38839;45.186;5.720;2022-11-20T16:45:57;2.30;;;1.90;;
52974;SDS011;38839;45.186;5.720;2022-11-20T16:48:22;3.92;;;2.25;;
52974;SDS011;38839;45.186;5.720;2022-11-20T16:50:51;4.22;;;2.42;;
52974;SDS011;38839;45.186;5.720;2022-11-20T16:53:18;4.85;;;2.28;;
52974;SDS011;38839;45.186;5.720;2022-11-20T16:55:44;4.72;;;2.88;;
52974;SDS011;38839;45.186;5.720;2022-11-20T16:58:10;4.72;;;2.67;;
52974;SDS011;38839;45.186;5.720;2022-11-20T17:00:37;4.10;;;3.10;;
52974;SDS011;38839;45.186;5.720;2022-11-20T17:03:07;4.28;;;2.80;;
52974;SDS011;38839;45.186;5.720;2022-11-20T17:05:33;5.50;;;2.53;;
52974;SDS011;38839;45.186;5.720;2022-11-20T17:07:59;4.53;;;2.53;;
52974;SDS011;38839;45.186;5.720;2022-11-20T17:10:24;5.68;;;2.80;;
52974;SDS011;38839;45.186;5.720;2022-11-20T17:12:50;3.58;;;2.65;;
52974;SDS011;38839;45.186;5.720;2022-11-20T17:15:16;4.20;;;2.97;;
52974;SDS011;38839;45.186;5.720;2022-11-20T17:17:42;4.10;;;2.85;;
52974;SDS011;38839;45.186;5.720;2022-11-20T17:20:07;3.25;;;2.25;;
52974;SDS011;38839;45.186;5.720;2022-11-20T17:22:33;5.15;;;3.28;;
52974;SDS011;38839;45.186;5.720;2022-11-20T17:24:58;4.32;;;2.85;;
52974;SDS011;38839;45.186;5.720;2022-11-20T17:27:24;4.18;;;2.72;;
52974;SDS011;38839;45.186;5.720;2022-11-20T17:29:50;5.20;;;2.33;;
52974;SDS011;38839;45.186;5.720;2022-11-20T17:32:18;3.75;;;2.58;;
52974;SDS011;38839;45.186;5.720;2022-11-20T17:34:44;4.57;;;3.30;;
52974;SDS011;38839;45.186;5.720;2022-11-20T17:37:10;6.97;;;2.97;;
52974;SDS011;38839;45.186;5.720;2022-11-20T17:39:35;6.38;;;2.65;;
52974;SDS011;38839;45.186;5.720;2022-11-20T17:42:00;3.30;;;2.53;;
52974;SDS011;38839;45.186;5.720;2022-11-20T17:44:45;4.10;;;2.50;;
52974;SDS011;38839;45.186;5.720;2022-11-20T17:47:11;5.97;;;2.90;;
52974;SDS011;38839;45.186;5.720;2022-11-20T17:49:37;3.72;;;2.45;;
52974;SDS011;38839;45.186;5.720;2022-11-20T17:52:02;4.03;;;2.65;;
52974;SDS011;38839;45.186;5.720;2022-11-20T17:54:28;4.32;;;2.63;;